• Join FlightAware (Why Join?)
  • Login
  • US Flag 
11:38AM EDT


 

Airport Tracker/Info


-or-


 

Live Flight TrackerFlight Track Log ✈ N830QS ✈ 10-Oct-2013 ✈ KMIA - KTEB

Flight Track Log - Related Links

Times and Time Zones

All times are in EDT time to prevent confusion due to time zone crossing. See the N830QS flight status page for this flight to view local times or setup timezone preferences in your user account.

Time Position Orientation Groundspeed Altitude Reporting Facility
EDT Latitude Longitude Course Direction KTS MPH feet Rate Location/Type
04:45PM 25.8450 -80.1467 342° North 272 313 7,000  Level Miami Center
04:46PM 25.9133 -80.1714 342° North 265 305 7,000 240 Level Miami Center
04:47PM 25.9897 -80.2083 337° Northwest 279 321 7,500 1,440 Climbing Miami Center
04:48PM 26.0675 -80.2753 322° Northwest 310 357 10,300 2,520 Climbing Miami Center
04:49PM 26.1289 -80.3325 320° Northwest 300 345 13,300 2,700 Climbing Miami Center
04:50PM 26.1922 -80.3922 320° Northwest 300 345 15,800 2,340 Climbing Miami Center
04:51PM 26.2642 -80.4453 327° Northwest 308 354 18,000 1,800 Climbing Miami Center
04:52PM 26.3528 -80.4897 336° Northwest 322 371 19,500 1,680 Climbing Miami Center
04:53PM 26.4456 -80.5344 337° Northwest 359 413 21,400 1,680 Climbing Miami Center
04:54PM 26.5364 -80.5767 337° Northwest 359 413 22,900 1,500 Climbing Miami Center
04:55PM 26.6292 -80.6214 337° Northwest 359 413 24,400 1,380 Climbing Miami Center
04:56PM 26.7242 -80.6664 337° Northwest 359 413 25,700 1,260 Climbing Miami Center
04:57PM 26.8108 -80.7039 339° North 359 413 27,000 1,200 Climbing Miami Center
04:58PM 26.9142 -80.7400 343° North 371 427 28,200 1,140 Climbing Miami Center
04:59PM 27.0222 -80.7647 348° North 377 434 29,300 1,080 Climbing Miami Center
05:00PM 27.1322 -80.7869 350° North 394 453 30,400 1,080 Climbing Miami Center
05:01PM 27.2422 -80.8094 350° North 394 453 31,500 1,080 Climbing Miami Center
05:02PM 27.3522 -80.8342 349° North 394 453 32,600 1,080 Climbing Miami Center
05:03PM 27.4644 -80.8567 350° North 394 453 33,700 1,080 Climbing Miami Center
05:04PM 27.5703 -80.8814 348° North 394 453 34,800 1,200 Climbing Miami Center
05:05PM 27.6758 -80.9064 348° North 389 448 36,100 1,260 Climbing Miami Center
05:06PM 27.7797 -80.9264 350° North 389 448 37,400 1,200 Climbing Miami Center
05:07PM 27.8833 -80.9514 348° North 381 438 38,600 780 Climbing Miami Center
05:08PM 27.9831 -80.9736 349° North 371 427 39,000 180 Climbing Miami Center
05:09PM 28.0867 -80.9939 350° North 371 427 39,000  Level Miami Center
05:12PM 28.3453 -81.0506 349° North 380 437 39,000  Level Jacksonville Center
05:13PM 28.4461 -81.0794 346° North 398 458 39,000  Level Jacksonville Center
05:14PM 28.5547 -81.1011 350° North 398 458 39,000  Level Jacksonville Center
05:15PM 28.6617 -81.1300 347° North 398 458 39,000  Level Jacksonville Center
05:16PM 28.7706 -81.1517 350° North 393 452 39,000  Level Jacksonville Center
05:17PM 28.8792 -81.1758 349° North 393 452 39,000  Level Jacksonville Center
05:18PM 28.9839 -81.1978 350° North 393 452 39,000  Level Jacksonville Center
05:19PM 29.0928 -81.2244 348° North 393 452 39,000  Level Jacksonville Center
05:20PM 29.1975 -81.2489 348° North 393 452 39,000  Level Jacksonville Center
05:21PM 29.3061 -81.2614 354° North 393 452 39,000  Level Jacksonville Center
05:22PM 29.4169 -81.2594 North 393 452 39,000  Level Jacksonville Center
05:23PM 29.5233 -81.2528 North 381 438 39,000  Level Jacksonville Center
05:24PM 29.6339 -81.2486 North 387 445 39,000  Level Jacksonville Center
05:25PM 29.7464 -81.2419 North 387 445 39,000  Level Jacksonville Center
05:26PM 29.8592 -81.2378 North 393 452 39,000  Level Jacksonville Center
05:27PM 29.9717 -81.2333 North 398 458 39,000  Level Jacksonville Center
05:28PM 30.0825 -81.2292 North 398 458 39,000  Level Jacksonville Center
05:29PM 30.1972 -81.2222 North 403 464 39,000  Level Jacksonville Center
05:30PM 30.3078 -81.2156 North 403 464 39,000  Level Jacksonville Center
05:31PM 30.4203 -81.2136 North 403 464 39,000  Level Jacksonville Center
05:32PM 30.5436 -81.2067 North 403 464 39,000  Level Jacksonville Center
05:33PM 30.6542 -81.2047 North 398 458 39,000  Level Jacksonville Center
05:34PM 30.7667 -81.1978 North 398 458 39,000  Level Jacksonville Center
05:35PM 30.8794 -81.1933 North 404 465 39,000  Level Jacksonville Center
05:36PM 30.9900 -81.1889 North 404 465 39,000  Level Jacksonville Center
05:37PM 31.1006 -81.1844 North 392 451 39,000  Level Jacksonville Center
05:38PM 31.2114 -81.1800 North 392 451 39,000  Level Jacksonville Center
05:39PM 31.3217 -81.1683 North 392 451 39,000  Level Jacksonville Center
05:40PM 31.4233 -81.1056 28° Northeast 384 442 39,000  Level Jacksonville Center
05:41PM 31.5183 -81.0381 31° Northeast 399 459 39,000  Level Jacksonville Center
05:42PM 31.6194 -80.9675 31° Northeast 408 470 39,000  Level Jacksonville Center
05:43PM 31.7144 -80.8972 32° Northeast 413 475 39,000  Level Jacksonville Center
05:44PM 31.8033 -80.8342 31° Northeast 413 475 39,000  Level Jacksonville Center
05:45PM 31.9147 -80.7558 31° Northeast 413 475 39,000  Level Jacksonville Center
05:46PM 32.0117 -80.6850 32° Northeast 413 475 39,000  Level Jacksonville Center
05:47PM 32.1128 -80.6139 31° Northeast 418 481 39,000  Level Jacksonville Center
05:48PM 32.2094 -80.5403 33° Northeast 411 473 39,000  Level Jacksonville Center
05:49PM 32.3061 -80.4692 32° Northeast 419 482 39,000  Level Jacksonville Center
05:50PM 32.4072 -80.3975 31° Northeast 419 482 39,000  Level Jacksonville Center
05:51PM 32.5036 -80.3233 33° Northeast 414 476 39,000  Level Jacksonville Center
05:52PM 32.6067 -80.2514 30° Northeast 414 476 39,000  Level Jacksonville Center
05:53PM 32.7031 -80.1769 33° Northeast 414 476 39,000  Level Jacksonville Center
05:54PM 32.8017 -80.1025 32° Northeast 419 482 39,000  Level Jacksonville Center
05:55PM 32.8942 -80.0378 30° Northeast 425 489 39,000  Level Jacksonville Center
05:56PM 33.0103 -79.9994 15° North 419 482 39,000  Level Jacksonville Center
05:57PM 33.1264 -79.9683 13° North 419 482 39,000  Level Jacksonville Center
05:58PM 33.2406 -79.9397 12° North 419 482 39,000  Level Jacksonville Center
05:59PM 33.3544 -79.9086 13° North 419 482 39,000  Level Jacksonville Center
06:00PM 33.4664 -79.8725 15° North 419 482 39,000  Level Jacksonville Center
06:01PM 33.5778 -79.8189 22° Northeast 413 475 39,000  Level Jacksonville Center
06:02PM 33.6872 -79.7675 21° North 424 488 39,000  Level Jacksonville Center
06:03PM 33.7986 -79.7161 21° North 424 488 39,000  Level Jacksonville Center
06:04PM 33.9119 -79.6594 23° Northeast 430 495 39,000  Level Jacksonville Center
06:05PM 34.0189 -79.6081 22° Northeast 425 489 39,000  Level Jacksonville Center
06:07PM 34.2478 -79.4986 22° Northeast 417 480 39,000  Level Washington Center
06:08PM 34.3622 -79.4411 23° Northeast 423 487 39,000  Level Washington Center
06:09PM 34.4725 -79.3858 22° Northeast 423 487 39,000  Level Washington Center
06:10PM 34.5847 -79.3331 21° North 423 487 39,000  Level Washington Center
06:11PM 34.6950 -79.2775 22° Northeast 423 487 39,000  Level Washington Center
06:12PM 34.8072 -79.2244 21° North 423 487 39,000  Level Washington Center
06:13PM 34.9175 -79.1686 23° Northeast 423 487 39,000  Level Washington Center
06:14PM 35.0297 -79.1125 22° Northeast 423 487 39,000  Level Washington Center
06:15PM 35.1439 -79.0592 21° North 423 487 39,000  Level Washington Center
06:16PM 35.2561 -79.0031 22° Northeast 428 493 39,000  Level Washington Center
06:17PM 35.3703 -78.9467 22° Northeast 428 493 39,000  Level Washington Center
06:18PM 35.4719 -78.8975 21° North 428 493 39,000  Level Washington Center
06:19PM 35.5861 -78.8408 22° Northeast 439 505 39,000  Level Washington Center
06:20PM 35.7025 -78.7817 22° Northeast 439 505 39,000  Level Washington Center
06:21PM 35.8167 -78.7222 23° Northeast 439 505 39,000  Level Washington Center
06:22PM 35.9289 -78.6650 22° Northeast 439 505 39,000  Level Washington Center
06:23PM 36.0408 -78.6078 22° Northeast 439 505 39,000  Level Washington Center
06:24PM 36.1572 -78.5478 23° Northeast 439 505 39,000  Level Washington Center
06:25PM 36.2711 -78.4903 22° Northeast 439 505 39,000  Level Washington Center
06:26PM 36.3875 -78.4300 23° Northeast 439 505 39,000  Level Washington Center
06:27PM 36.4956 -78.3592 28° Northeast 439 505 39,000  Level Washington Center
06:28PM 36.5975 -78.2772 33° Northeast 439 505 39,000  Level Washington Center
06:29PM 36.7036 -78.1981 31° Northeast 439 505 39,000  Level Washington Center
06:30PM 36.8056 -78.1133 34° Northeast 439 505 39,000  Level Washington Center
06:31PM 36.9136 -78.0311 31° Northeast 439 505 39,000  Level Washington Center
06:32PM 37.0175 -77.9486 32° Northeast 439 505 39,000  Level Washington Center
06:33PM 37.1214 -77.8683 32° Northeast 439 505 39,000  Level Washington Center
06:34PM 37.2272 -77.7856 32° Northeast 439 505 39,000  Level Washington Center
06:35PM 37.3308 -77.7050 32° Northeast 439 505 39,000  Level Washington Center
06:36PM 37.4344 -77.6214 33° Northeast 439 505 39,000  Level Washington Center
06:37PM 37.5381 -77.5378 33° Northeast 434 499 39,000  Level Washington Center
06:38PM 37.6417 -77.4564 32° Northeast 434 499 39,000  Level Washington Center
06:39PM 37.7450 -77.3722 33° Northeast 434 499 39,000  Level Washington Center
06:40PM 37.8483 -77.2881 33° Northeast 434 499 39,000  Level Washington Center
06:41PM 37.9517 -77.2033 33° Northeast 434 499 39,000  Level Washington Center
06:42PM 38.0550 -77.1214 32° Northeast 434 499 39,000  Level Washington Center
06:43PM 38.1583 -77.0361 33° Northeast 434 499 39,000 -600 Level Washington Center
06:44PM 38.2572 -76.9456 36° Northeast 434 499 37,800 -1,620 Descending Washington Center
06:45PM 38.3417 -76.8597 39° Northeast 439 505 35,800 -2,400 Descending Washington Center
06:46PM 38.4533 -76.7397 40° Northeast 434 499 33,100 -2,400 Descending Washington Center
06:47PM 38.5292 -76.6611 39° Northeast 432 497 31,200 -2,340 Descending Washington Center
06:48PM 38.6428 -76.5406 40° Northeast 432 497 28,400 -2,520 Descending Washington Center
06:49PM 38.7372 -76.4461 38° Northeast 432 497 26,100 -1,740 Descending Washington Center
06:50PM 38.8419 -76.3886 23° Northeast 404 465 25,000 -1,080 Descending Washington Center
06:51PM 38.9506 -76.3364 21° North 404 465 24,000 -540 Descending Washington Center
06:52PM 39.0572 -76.2839 21° North 404 465 24,000  Level Washington Center
06:53PM 39.1639 -76.2181 26° Northeast 410 472 24,000  Level Washington Center
06:54PM 39.2436 -76.1275 41° Northeast 416 479 24,000 -840 Level Washington Center
06:55PM 39.3314 -76.0369 39° Northeast 416 479 22,400 -1,860 Descending Washington Center
06:57PM 39.5500 -75.8333 36° Northeast 365 420 17,700 -1,920 Descending Philadelphia TRACON
06:58PM 39.6333 -75.7500 38° Northeast 376 433 16,200 -1,680 Descending Philadelphia TRACON
06:59PM 39.7167 -75.6833 32° Northeast 369 425 14,600 -1,620 Descending Philadelphia TRACON
07:00PM 39.7833 -75.6000 44° Northeast 358 412 13,000 -840 Descending Philadelphia TRACON
07:01PM 39.8667 -75.5333 32° Northeast 351 404 13,000  Level Philadelphia TRACON
07:02PM 39.9500 -75.4667 32° Northeast 358 412 13,000  Level Philadelphia TRACON
07:03PM 40.0333 -75.3833 37° Northeast 339 390 13,000  Level Philadelphia TRACON
07:04PM 40.1167 -75.3167 31° Northeast 346 398 13,000 -420 Level Philadelphia TRACON
07:05PM 40.1833 -75.2333 44° Northeast 324 373 12,200 -1,080 Descending Philadelphia TRACON
07:06PM 40.2500 -75.1833 30° Northeast 305 351 10,900 -1,500 Descending Philadelphia TRACON
07:08PM 40.3667 -75.0500 41° Northeast 284 327 8,100 -1,440 Descending New York TRACON
07:09PM 40.4167 -74.9833 45° Northeast 275 316 7,000 -600 Descending New York TRACON
07:10PM 40.4667 -74.9000 52° Northeast 272 313 7,000 -600 Level New York TRACON
07:11PM 40.5000 -74.8167 62° Northeast 260 299 5,800 -1,200 Descending New York TRACON
07:12PM 40.5167 -74.7333 75° East 248 285 4,600 -1,440 Descending New York TRACON
07:13PM 40.5333 -74.6667 72° East 210 242 3,000 -780 Descending New York TRACON
07:14PM 40.5667 -74.5833 62° Northeast 199 229 3,000  Level New York TRACON
07:15PM 40.6000 -74.5333 49° Northeast 210 242 3,000  Level New York TRACON
07:16PM 40.6167 -74.4667 72° East 198 228 3,000  Level New York TRACON
07:17PM 40.6500 -74.4000 57° Northeast 182 209 3,000 -360 Level New York TRACON
07:18PM 40.6667 -74.3500 66° East 163 188 2,300 -540 Descending New York TRACON
07:19PM 40.7000 -74.3000 49° Northeast 186 214 2,000 -360 Descending New York TRACON
07:20PM 40.7333 -74.2333 57° Northeast 183 211 1,600 -240 Descending New York TRACON
07:21PM 40.7667 -74.2000 37° Northeast 161 185 1,500 -60 Descending New York TRACON
07:22PM 40.8000 -74.1500 49° Northeast 162 186 1,500 -300 Level New York TRACON
07:23PM 40.8167 -74.1167 57° Northeast 121 139 900 -600 Descending New York TRACON
07:24PM 40.8333 -74.0833 57° Northeast 101 116 300 -600 Descending New York TRACON
07:26PM 40.8500 -74.0500 57° Northeast  Level FlightAware Approximate
07:33PM 40.8501 -74.0608 57° Northeast  Level Estimated